createdAt,value
2018-10-05T00:01:10.961Z,96457.94
2018-10-05T00:03:36.470Z,96460.55
2018-10-05T00:06:01.938Z,96455.47
2018-10-05T00:08:27.415Z,96452.45
2018-10-05T00:10:52.901Z,96452.86
2018-10-05T00:13:18.369Z,96449.70
2018-10-05T00:15:43.878Z,96451.25
2018-10-05T00:18:09.375Z,96443.02
2018-10-05T00:20:34.925Z,96444.80
2018-10-05T00:23:00.340Z,96443.98
2018-10-05T00:25:25.837Z,96443.02
2018-10-05T00:27:51.341Z,96437.52
2018-10-05T00:30:16.831Z,96433.95
2018-10-05T00:32:42.296Z,96432.58
2018-10-05T00:35:07.773Z,96432.90
2018-10-05T00:37:33.270Z,96430.02
2018-10-05T00:39:58.735Z,96429.02
2018-10-05T00:42:24.213Z,96424.52
2018-10-05T00:44:49.703Z,96429.42
2018-10-05T00:47:15.173Z,96430.16
2018-10-05T00:49:40.644Z,96435.78
2018-10-05T00:52:06.111Z,96438.53
2018-10-05T00:54:31.605Z,96443.33
2018-10-05T00:56:57.099Z,96447.03
2018-10-05T00:59:22.568Z,96441.28
2018-10-05T01:01:48.066Z,96445.02
2018-10-05T01:04:13.540Z,96442.65
2018-10-05T01:06:39.009Z,96440.73
2018-10-05T01:09:04.475Z,96434.03
2018-10-05T01:11:30.031Z,96430.70
2018-10-05T01:13:55.461Z,96427.95
2018-10-05T01:16:20.957Z,96430.30
2018-10-05T01:18:46.424Z,96435.78
2018-10-05T01:21:11.920Z,96437.47
2018-10-05T01:23:37.395Z,96434.17
2018-10-05T01:26:02.877Z,96438.44
2018-10-05T01:28:28.353Z,96429.82
2018-10-05T01:30:53.844Z,96435.69
2018-10-05T01:33:19.312Z,96439.16
2018-10-05T01:35:44.787Z,96439.98
2018-10-05T01:38:10.256Z,96439.02
2018-10-05T01:40:35.755Z,96430.38
2018-10-05T01:43:01.225Z,96434.48
2018-10-05T01:45:26.694Z,96431.75
2018-10-05T01:47:52.164Z,96439.02
2018-10-05T01:50:17.642Z,96441.91
2018-10-05T01:52:43.118Z,96448.36
2018-10-05T01:55:08.613Z,96450.70
2018-10-05T01:57:34.104Z,96450.14
2018-10-05T01:59:59.571Z,96449.32
2018-10-05T02:02:25.107Z,96451.52
2018-10-05T02:04:50.555Z,96440.30
2018-10-05T02:07:16.019Z,96440.30
2018-10-05T02:09:41.488Z,96444.00
2018-10-05T02:12:06.966Z,96452.66
2018-10-05T02:14:32.433Z,96454.03
2018-10-05T02:16:57.925Z,96451.11
2018-10-05T02:19:23.398Z,96447.30
2018-10-05T02:21:48.869Z,96443.59
2018-10-05T02:24:14.336Z,96446.34
2018-10-05T02:26:39.809Z,96449.64
2018-10-05T02:29:05.277Z,96452.80
2018-10-05T02:31:30.771Z,96451.73
2018-10-05T02:33:56.243Z,96458.45
2018-10-05T02:36:21.795Z,96466.94
2018-10-05T02:38:47.271Z,96462.17
2018-10-05T02:41:12.737Z,96458.05
2018-10-05T02:43:38.231Z,96458.59
2018-10-05T02:46:03.705Z,96466.70
2018-10-05T02:48:29.178Z,96458.05
2018-10-05T02:50:54.644Z,96463.54
2018-10-05T02:53:20.162Z,96459.56
2018-10-05T02:55:45.637Z,96464.23
2018-10-05T02:58:11.142Z,96459.02
2018-10-05T03:00:36.629Z,96461.48
2018-10-05T03:03:02.101Z,96463.03
2018-10-05T03:05:27.592Z,96464.81
2018-10-05T03:07:53.086Z,96465.78
2018-10-05T03:10:18.582Z,96466.56
2018-10-05T03:12:44.072Z,96467.94
2018-10-05T03:15:09.580Z,96464.64
2018-10-05T03:17:35.044Z,96462.63
2018-10-05T03:20:00.539Z,96468.52
2018-10-05T03:22:26.013Z,96463.03
2018-10-05T03:24:51.517Z,96470.86
2018-10-05T03:27:17.012Z,96465.78
2018-10-05T03:29:42.555Z,96464.41
2018-10-05T03:32:08.031Z,96459.88
2018-10-05T03:34:33.522Z,96462.21
2018-10-05T03:36:58.996Z,96463.59
2018-10-05T03:39:24.491Z,96464.31
2018-10-05T03:41:49.994Z,96465.51
2018-10-05T03:44:15.525Z,96471.73
2018-10-05T03:46:40.937Z,96466.23
2018-10-05T03:49:06.434Z,96464.72
2018-10-05T03:51:31.908Z,96468.84
2018-10-05T03:53:57.397Z,96475.12
2018-10-05T03:56:22.867Z,96476.66
2018-10-05T03:58:48.367Z,96471.31
2018-10-05T04:01:13.862Z,96478.17
2018-10-05T04:03:39.360Z,96474.06
2018-10-05T04:06:04.849Z,96469.53
2018-10-05T04:08:30.353Z,96474.23
2018-10-05T04:10:55.852Z,96480.09
2018-10-05T04:13:21.342Z,96474.23
2018-10-05T04:15:46.875Z,96481.47
2018-10-05T04:18:12.341Z,96474.23
2018-10-05T04:20:37.870Z,96478.08
2018-10-05T04:23:03.337Z,96476.98
2018-10-05T04:25:28.815Z,96472.59
2018-10-05T04:27:54.285Z,96466.69
2018-10-05T04:30:19.784Z,96468.88
2018-10-05T04:32:45.279Z,96470.66
2018-10-05T04:35:10.857Z,96464.52
2018-10-05T04:37:36.311Z,96466.86
2018-10-05T04:40:01.811Z,96462.74
2018-10-05T04:42:27.289Z,96467.83
2018-10-05T04:44:52.786Z,96466.59
2018-10-05T04:47:18.255Z,96469.34
2018-10-05T04:49:43.908Z,96472.35
2018-10-05T04:52:09.273Z,96483.84
2018-10-05T04:54:34.748Z,96483.26
2018-10-05T04:57:00.308Z,96496.98
2018-10-05T04:59:25.715Z,96499.73
2018-10-05T05:01:51.211Z,96501.52
2018-10-05T05:04:16.688Z,96506.38
2018-10-05T05:06:42.158Z,96503.39
2018-10-05T05:09:07.692Z,96505.31
2018-10-05T05:11:33.185Z,96510.57
2018-10-05T05:13:58.664Z,96512.91
2018-10-05T05:16:24.137Z,96519.12
2018-10-05T05:18:49.647Z,96519.91
2018-10-05T05:21:15.143Z,96523.06
2018-10-05T05:23:40.639Z,96521.69
2018-10-05T05:26:06.129Z,96525.02
2018-10-05T05:28:31.645Z,96523.38
2018-10-05T05:30:57.130Z,96528.22
2018-10-05T05:33:22.674Z,96523.48
2018-10-05T05:35:48.173Z,96531.77
2018-10-05T05:38:13.670Z,96539.55
2018-10-05T05:40:39.191Z,96549.64
2018-10-05T05:43:04.833Z,96547.06
2018-10-05T05:45:30.327Z,96548.13
2018-10-05T05:47:56.195Z,96550.22
2018-10-05T05:50:21.672Z,96549.26
2018-10-05T05:52:47.179Z,96546.97
2018-10-05T05:55:12.685Z,96552.59
2018-10-05T05:57:38.162Z,96550.98
2018-10-05T06:00:03.669Z,96548.06
2018-10-05T06:02:29.162Z,96551.95
2018-10-05T06:04:54.649Z,96552.36
2018-10-05T06:07:20.138Z,96557.75
2018-10-05T06:09:45.642Z,96563.75
2018-10-05T06:12:11.155Z,96565.72
2018-10-05T06:14:36.612Z,96570.41
2018-10-05T06:17:02.084Z,96566.98
2018-10-05T06:19:27.586Z,96565.48
2018-10-05T06:21:53.311Z,96568.05
2018-10-05T06:24:18.536Z,96563.14
2018-10-05T06:26:44.043Z,96572.75
2018-10-05T06:29:09.533Z,96561.91
2018-10-05T06:31:35.122Z,96561.67
2018-10-05T06:34:00.806Z,96561.09
2018-10-05T06:36:26.337Z,96556.73
2018-10-05T06:38:51.984Z,96557.69
2018-10-05T06:41:17.463Z,96555.50
2018-10-05T06:43:43.005Z,96551.00
2018-10-05T06:46:08.537Z,96550.73
2018-10-05T06:48:34.028Z,96556.48
2018-10-05T06:50:59.693Z,96549.77
2018-10-05T06:53:25.231Z,96555.27
2018-10-05T06:55:50.699Z,96547.02
2018-10-05T06:58:16.189Z,96550.28
2018-10-05T07:00:41.674Z,96556.20
2018-10-05T07:03:07.226Z,96549.20
2018-10-05T07:05:32.699Z,96556.37
2018-10-05T07:07:58.260Z,96551.53
2018-10-05T07:10:23.742Z,96544.44
2018-10-05T07:12:49.220Z,96543.44
2018-10-05T07:15:14.739Z,96534.66
2018-10-05T07:17:40.279Z,96548.37
2018-10-05T07:20:05.777Z,96544.98
2018-10-05T07:22:31.333Z,96546.05
2018-10-05T07:24:56.779Z,96544.12
2018-10-05T07:27:22.280Z,96545.50
2018-10-05T07:29:47.778Z,96545.39
2018-10-05T07:32:13.326Z,96549.11
2018-10-05T07:34:39.404Z,96541.28
2018-10-05T07:37:05.178Z,96541.28
2018-10-05T07:39:42.639Z,96548.55
2018-10-05T07:42:08.145Z,96546.36
2018-10-05T07:44:33.612Z,96550.48
2018-10-05T07:46:59.108Z,96552.91
2018-10-05T07:49:24.644Z,96554.83
2018-10-05T07:51:50.180Z,96559.53
2018-10-05T07:54:15.591Z,96558.41
2018-10-05T07:56:41.073Z,96550.67
2018-10-05T07:59:06.569Z,96549.06
2018-10-05T08:01:32.071Z,96540.41
2018-10-05T08:03:58.695Z,96548.44
2018-10-05T08:06:23.094Z,96547.52
2018-10-05T08:08:48.588Z,96541.20
2018-10-05T08:11:14.070Z,96539.28
2018-10-05T08:13:39.563Z,96537.91
2018-10-05T08:16:05.073Z,96536.08
2018-10-05T08:18:30.537Z,96538.18
2018-10-05T08:20:56.213Z,96534.06
2018-10-05T08:23:21.688Z,96533.34
2018-10-05T08:25:47.161Z,96541.40
2018-10-05T08:28:12.727Z,96535.36
2018-10-05T08:30:38.332Z,96537.80
2018-10-05T08:33:03.830Z,96536.18
2018-10-05T08:35:29.323Z,96532.61
2018-10-05T08:37:54.827Z,96527.94
2018-10-05T08:40:20.437Z,96519.84
2018-10-05T08:42:45.868Z,96516.45
2018-10-05T08:45:11.365Z,96515.22
2018-10-05T08:47:36.837Z,96514.84
2018-10-05T08:50:02.318Z,96517.17
2018-10-05T08:52:28.043Z,96513.16
2018-10-05T08:54:53.540Z,96512.74
2018-10-05T08:57:19.077Z,96509.45
2018-10-05T08:59:44.579Z,96509.45
2018-10-05T09:02:10.082Z,96506.29
2018-10-05T09:04:35.575Z,96499.52
2018-10-05T09:07:01.060Z,96497.19
2018-10-05T09:09:26.561Z,96493.86
2018-10-05T09:11:52.048Z,96492.25
2018-10-05T09:14:17.555Z,96492.56
2018-10-05T09:16:43.054Z,96490.78
2018-10-05T09:19:08.689Z,96483.09
2018-10-05T09:21:34.210Z,96485.02
2018-10-05T09:23:59.778Z,96479.63
2018-10-05T09:26:25.207Z,96473.75
2018-10-05T09:28:50.703Z,96470.42
2018-10-05T09:31:16.211Z,96463.00
2018-10-05T09:33:41.712Z,96460.91
2018-10-05T09:36:07.222Z,96464.79
2018-10-05T09:38:32.707Z,96467.08
2018-10-05T09:40:58.177Z,96460.45
2018-10-05T09:43:23.640Z,96465.39
2018-10-05T09:45:49.136Z,96457.47
2018-10-05T09:48:14.607Z,96449.05
2018-10-05T09:50:40.082Z,96452.53
2018-10-05T09:53:05.606Z,96448.65
2018-10-05T09:55:31.094Z,96442.60
2018-10-05T09:57:56.585Z,96443.25
2018-10-05T10:00:22.083Z,96435.73
2018-10-05T10:02:47.614Z,96431.30
2018-10-05T10:05:13.124Z,96432.77
2018-10-05T10:07:38.623Z,96432.95
2018-10-05T10:10:04.112Z,96432.36
2018-10-05T10:12:29.597Z,96431.91
2018-10-05T10:14:55.108Z,96430.53
2018-10-05T10:17:20.620Z,96436.84
2018-10-05T10:19:46.112Z,96429.25
2018-10-05T10:22:11.590Z,96422.89
2018-10-05T10:24:37.108Z,96411.77
2018-10-05T10:27:02.632Z,96413.13
2018-10-05T10:29:28.138Z,96406.65
2018-10-05T10:31:53.580Z,96403.26
2018-10-05T10:34:19.107Z,96396.80
2018-10-05T10:36:44.563Z,96395.66
2018-10-05T10:39:10.033Z,96395.11
2018-10-05T10:41:35.527Z,96382.34
2018-10-05T10:44:01.029Z,96380.51
2018-10-05T10:46:26.535Z,96375.52
2018-10-05T10:48:52.029Z,96370.65
2018-10-05T10:51:17.521Z,96368.60
2018-10-05T10:53:43.016Z,96364.85
2018-10-05T10:56:08.542Z,96359.59
2018-10-05T10:58:34.011Z,96361.27
2018-10-05T11:00:59.491Z,96354.48
2018-10-05T11:03:24.989Z,96353.50
2018-10-05T11:05:50.504Z,96351.16
2018-10-05T11:08:16.001Z,96340.17
2018-10-05T11:10:41.490Z,96340.48
2018-10-05T11:13:06.991Z,96339.53
2018-10-05T11:15:32.460Z,96335.64
2018-10-05T11:17:57.931Z,96328.56
2018-10-05T11:20:23.425Z,96334.59
2018-10-05T11:22:48.931Z,96334.64
2018-10-05T11:25:14.462Z,96330.11
2018-10-05T11:27:39.932Z,96330.02
2018-10-05T11:30:05.406Z,96328.09
2018-10-05T11:32:30.894Z,96329.84
2018-10-05T11:34:56.399Z,96323.71
2018-10-05T11:37:21.894Z,96317.34
2018-10-05T11:39:47.412Z,96317.58
2018-10-05T11:42:12.893Z,96319.36
2018-10-05T11:44:38.369Z,96312.98
2018-10-05T11:47:03.842Z,96317.20
2018-10-05T11:49:29.335Z,96310.16
2018-10-05T11:51:54.843Z,96309.88
2018-10-05T11:54:20.340Z,96314.45
2018-10-05T11:56:45.814Z,96305.63
2018-10-05T11:59:11.299Z,96296.14
2018-10-05T12:01:36.768Z,96293.39
2018-10-05T12:04:02.297Z,96302.33
2018-10-05T12:06:27.802Z,96298.48
2018-10-05T12:08:53.317Z,96299.03
2018-10-05T12:11:18.830Z,96304.78
2018-10-05T12:13:44.364Z,96301.98
2018-10-05T12:16:09.846Z,96294.86
2018-10-05T12:18:35.324Z,96299.03
2018-10-05T12:21:00.817Z,96290.18
2018-10-05T12:23:26.318Z,96286.53
2018-10-05T12:25:51.815Z,96284.69
2018-10-05T12:28:17.333Z,96284.13
2018-10-05T12:30:42.808Z,96280.98
2018-10-05T12:33:08.337Z,96288.48
2018-10-05T12:35:33.778Z,96280.25
2018-10-05T12:37:59.278Z,96273.23
2018-10-05T12:40:24.781Z,96268.70
2018-10-05T12:42:50.277Z,96264.82
2018-10-05T12:45:15.791Z,96265.41
2018-10-05T12:47:41.269Z,96263.30
2018-10-05T12:50:06.815Z,96258.45
2018-10-05T12:52:32.299Z,96252.31
2018-10-05T12:54:57.831Z,96251.03
2018-10-05T12:57:23.315Z,96255.06
2018-10-05T12:59:48.788Z,96251.44
2018-10-05T13:02:14.266Z,96253.31
2018-10-05T13:04:39.768Z,96250.21
2018-10-05T13:07:05.250Z,96252.55
2018-10-05T13:09:30.754Z,96246.73
2018-10-05T13:11:56.258Z,96244.72
2018-10-05T13:14:21.827Z,96243.72
2018-10-05T13:16:47.303Z,96237.23
2018-10-05T13:19:12.788Z,96234.20
2018-10-05T13:21:38.256Z,96236.07
2018-10-05T13:24:03.755Z,96233.06
2018-10-05T13:26:29.228Z,96234.93
2018-10-05T13:28:54.739Z,96228.47
2018-10-05T13:31:20.214Z,96226.37
2018-10-05T13:33:46.435Z,96226.72
2018-10-05T13:36:11.906Z,96223.23
2018-10-05T13:38:37.400Z,96227.45
2018-10-05T13:41:02.901Z,96223.80
2018-10-05T13:43:28.392Z,96227.86
2018-10-05T13:45:53.886Z,96220.34
2018-10-05T13:48:19.385Z,96225.34
2018-10-05T13:50:44.895Z,96212.84
2018-10-05T13:53:10.374Z,96210.23
2018-10-05T13:55:35.937Z,96219.09
2018-10-05T13:58:01.970Z,96222.89
2018-10-05T14:00:27.458Z,96227.51
2018-10-05T14:02:52.984Z,96226.78
2018-10-05T14:05:18.434Z,96228.00
2018-10-05T14:07:43.902Z,96223.33
2018-10-05T14:10:09.401Z,96221.95
2018-10-05T14:12:34.903Z,96219.03
2018-10-05T14:15:00.416Z,96218.56
2018-10-05T14:17:25.895Z,96214.67
2018-10-05T14:19:51.473Z,96214.91
2018-10-05T14:22:16.974Z,96217.75
2018-10-05T14:24:42.476Z,96216.05
2018-10-05T14:27:07.952Z,96216.93
2018-10-05T14:29:33.465Z,96216.52
2018-10-05T14:31:58.964Z,96214.25
2018-10-05T14:34:24.433Z,96222.57
2018-10-05T14:36:49.951Z,96220.00
2018-10-05T14:39:15.445Z,96221.93
2018-10-05T14:41:41.035Z,96213.89
2018-10-05T14:44:06.440Z,96216.23
2018-10-05T14:46:31.921Z,96216.78
2018-10-05T14:48:58.025Z,96218.16
2018-10-05T14:51:23.971Z,96219.83
2018-10-05T14:53:49.644Z,96222.48
2018-10-05T14:56:15.312Z,96216.20
2018-10-05T14:58:40.791Z,96221.05
2018-10-05T15:01:06.286Z,96223.39
2018-10-05T15:03:31.782Z,96225.17
2018-10-05T15:05:57.310Z,96226.69
2018-10-05T15:08:22.776Z,96223.80
2018-10-05T15:10:48.265Z,96221.63
2018-10-05T15:13:13.793Z,96225.31
2018-10-05T15:15:39.236Z,96230.25
2018-10-05T15:18:04.738Z,96238.81
2018-10-05T15:20:30.238Z,96237.91
2018-10-05T15:22:55.740Z,96233.32
2018-10-05T15:25:21.231Z,96234.20
2018-10-05T15:27:46.715Z,96238.52
2018-10-05T15:30:12.223Z,96234.78
2018-10-05T15:32:37.773Z,96238.31
2018-10-05T15:35:03.218Z,96246.36
2018-10-05T15:37:28.733Z,96249.48
2018-10-05T15:39:54.275Z,96241.73
2018-10-05T15:42:19.751Z,96245.77
2018-10-05T15:44:45.261Z,96247.23
2018-10-05T15:47:10.788Z,96251.94
2018-10-05T15:49:36.277Z,96254.69
2018-10-05T15:52:01.782Z,96255.70
2018-10-05T15:54:35.034Z,96251.27
2018-10-05T15:57:00.954Z,96253.57
2018-10-05T15:59:47.508Z,96258.27
2018-10-05T16:02:13.333Z,96260.23
2018-10-05T16:04:38.806Z,96261.05
2018-10-05T16:07:04.304Z,96252.58
2018-10-05T16:09:29.782Z,96253.66
2018-10-05T16:11:55.339Z,96253.63
2018-10-05T16:14:20.824Z,96248.58
2018-10-05T16:16:46.297Z,96253.66
2018-10-05T16:19:11.841Z,96251.97
2018-10-05T16:21:37.317Z,96252.20
2018-10-05T16:24:02.790Z,96250.45
2018-10-05T16:26:28.269Z,96259.97
2018-10-05T16:28:54.413Z,96251.50
2018-10-05T16:31:19.900Z,96253.92
2018-10-05T16:33:45.380Z,96252.05
2018-10-05T16:36:10.858Z,96256.49
2018-10-05T16:38:36.337Z,96257.72
2018-10-05T16:41:01.840Z,96255.62
2018-10-05T16:43:27.384Z,96254.91
2018-10-05T16:45:52.882Z,96263.19
2018-10-05T16:48:20.054Z,96259.30
2018-10-05T16:50:45.580Z,96256.70
2018-10-05T16:53:11.074Z,96265.27
2018-10-05T16:55:36.614Z,96264.53
2018-10-05T16:58:02.092Z,96271.75
2018-10-05T17:00:27.581Z,96270.29
2018-10-05T17:02:53.076Z,96273.50
2018-10-05T17:05:18.581Z,96281.89
2018-10-05T17:07:44.908Z,96282.36
2018-10-05T17:10:10.538Z,96284.98
2018-10-05T17:12:36.034Z,96288.70
2018-10-05T17:15:01.511Z,96289.34
2018-10-05T17:17:26.987Z,96287.50
2018-10-05T17:19:52.473Z,96299.13
2018-10-05T17:22:17.977Z,96297.99
2018-10-05T17:24:43.546Z,96295.74
2018-10-05T17:27:09.057Z,96301.47
2018-10-05T17:29:34.568Z,96297.81
2018-10-05T17:32:00.133Z,96298.23
2018-10-05T17:34:25.631Z,96293.88
2018-10-05T17:36:51.099Z,96299.45
2018-10-05T17:39:16.702Z,96294.45
2018-10-05T17:41:42.199Z,96298.17
2018-10-05T17:44:07.700Z,96295.48
2018-10-05T17:46:33.204Z,96296.85
2018-10-05T17:48:59.159Z,96293.17
2018-10-05T17:51:24.821Z,96299.22
2018-10-05T17:53:50.312Z,96305.77
2018-10-05T17:56:15.829Z,96306.36
2018-10-05T17:58:41.318Z,96311.39
2018-10-05T18:01:06.889Z,96311.80
2018-10-05T18:03:32.368Z,96317.20
2018-10-05T18:05:58.682Z,96319.39
2018-10-05T18:08:24.189Z,96317.14
2018-10-05T18:10:49.644Z,96304.02
2018-10-05T18:13:15.134Z,96318.63
2018-10-05T18:15:40.628Z,96314.55
2018-10-05T18:18:06.110Z,96317.70
2018-10-05T18:20:31.585Z,96316.88
2018-10-05T18:22:59.514Z,96312.53
2018-10-05T18:25:25.591Z,96314.22
2018-10-05T18:27:51.119Z,96309.69
2018-10-05T18:30:16.581Z,96313.31
2018-10-05T18:32:42.091Z,96309.42
2018-10-05T18:35:07.628Z,96308.41
2018-10-05T18:37:33.128Z,96309.52
2018-10-05T18:39:58.602Z,96309.37
2018-10-05T18:42:24.157Z,96303.28
2018-10-05T18:44:50.403Z,96303.47
2018-10-05T18:47:16.277Z,96308.95
2018-10-05T18:49:42.201Z,96308.14
2018-10-05T18:52:08.163Z,96309.28
2018-10-05T18:54:43.164Z,96313.22
2018-10-05T18:57:10.041Z,96317.20
2018-10-05T18:59:39.471Z,96318.48
2018-10-05T19:02:05.941Z,96316.76
2018-10-05T19:04:31.539Z,96315.73
2018-10-05T19:07:01.261Z,96318.08
2018-10-05T19:09:28.623Z,96320.00
2018-10-05T19:11:54.125Z,96319.27
2018-10-05T19:14:19.781Z,96327.78
2018-10-05T19:16:45.410Z,96322.70
2018-10-05T19:19:11.299Z,96321.33
2018-10-05T19:21:38.374Z,96320.36
2018-10-05T19:24:07.900Z,96319.05
2018-10-05T19:26:33.568Z,96319.77
2018-10-05T19:29:07.606Z,96316.76
2018-10-05T19:31:33.247Z,96325.67
2018-10-05T19:33:58.846Z,96322.52
2018-10-05T19:36:24.378Z,96323.62
2018-10-05T19:38:49.857Z,96322.08
2018-10-05T19:41:15.338Z,96322.75
2018-10-05T19:43:40.836Z,96327.56
2018-10-05T19:46:06.319Z,96334.52
2018-10-05T19:48:31.795Z,96328.30
2018-10-05T19:50:57.307Z,96322.16
2018-10-05T19:53:22.886Z,96327.71
2018-10-05T19:55:48.274Z,96318.00
2018-10-05T19:58:13.748Z,96331.33
2018-10-05T20:00:39.255Z,96323.36
2018-10-05T20:03:04.730Z,96332.15
2018-10-05T20:05:30.231Z,96336.03
2018-10-05T20:07:55.700Z,96328.49
2018-10-05T20:10:21.175Z,96325.10
2018-10-05T20:12:46.691Z,96328.81
2018-10-05T20:15:12.568Z,96328.67
2018-10-05T20:17:38.932Z,96332.97
2018-10-05T20:20:04.354Z,96334.17
2018-10-05T20:22:29.869Z,96332.24
2018-10-05T20:24:55.345Z,96324.88
2018-10-05T20:27:20.817Z,96326.10
2018-10-05T20:29:46.298Z,96322.53
2018-10-05T20:32:11.774Z,96319.84
2018-10-05T20:34:37.274Z,96320.34
2018-10-05T20:37:02.954Z,96327.21
2018-10-05T20:39:28.255Z,96323.00
2018-10-05T20:41:53.771Z,96328.99
2018-10-05T20:44:19.272Z,96330.69
2018-10-05T20:46:44.783Z,96332.20
2018-10-05T20:49:10.274Z,96327.94
2018-10-05T20:51:35.861Z,96331.41
2018-10-05T20:54:01.321Z,96327.67
2018-10-05T20:56:26.818Z,96334.72
2018-10-05T20:58:52.289Z,96330.83
2018-10-05T21:01:17.788Z,96328.95
2018-10-05T21:03:43.291Z,96329.37
2018-10-05T21:06:08.827Z,96333.08
2018-10-05T21:08:34.302Z,96339.39
2018-10-05T21:10:59.773Z,96334.30
2018-10-05T21:13:25.272Z,96341.63
2018-10-05T21:15:50.749Z,96341.13
2018-10-05T21:18:16.222Z,96342.78
2018-10-05T21:20:41.696Z,96336.38
2018-10-05T21:23:07.164Z,96342.47
2018-10-05T21:25:32.637Z,96340.13
2018-10-05T21:27:58.111Z,96345.05
2018-10-05T21:30:23.587Z,96347.55
2018-10-05T21:32:49.105Z,96348.28
2018-10-05T21:35:14.576Z,96348.60
2018-10-05T21:37:40.070Z,96352.31
2018-10-05T21:40:05.569Z,96349.30
2018-10-05T21:42:31.081Z,96351.25
2018-10-05T21:44:56.645Z,96353.68
2018-10-05T21:47:22.059Z,96355.20
2018-10-05T21:49:47.575Z,96346.73
2018-10-05T21:52:13.048Z,96343.16
2018-10-05T21:54:38.555Z,96344.53
2018-10-05T21:57:04.051Z,96344.39
2018-10-05T21:59:29.530Z,96340.83
2018-10-05T22:01:55.003Z,96338.63
2018-10-05T22:04:20.485Z,96343.30
2018-10-05T22:06:45.955Z,96341.52
2018-10-05T22:09:11.461Z,96338.77
2018-10-05T22:11:36.932Z,96338.54
2018-10-05T22:14:02.423Z,96334.42
2018-10-05T22:16:27.927Z,96333.19
2018-10-05T22:18:53.403Z,96335.94
2018-10-05T22:21:18.873Z,96331.81
2018-10-05T22:23:44.375Z,96334.56
2018-10-05T22:26:09.871Z,96330.44
2018-10-05T22:28:35.373Z,96335.94
2018-10-05T22:31:00.891Z,96338.30
2018-10-05T22:33:26.402Z,96332.23
2018-10-05T22:35:51.901Z,96328.69
2018-10-05T22:38:17.394Z,96319.23
2018-10-05T22:40:42.901Z,96326.64
2018-10-05T22:43:08.389Z,96323.90
2018-10-05T22:45:33.882Z,96322.52
2018-10-05T22:47:59.374Z,96325.27
2018-10-05T22:50:24.868Z,96329.16
2018-10-05T22:52:50.356Z,96320.09
2018-10-05T22:55:15.856Z,96332.22
2018-10-05T22:57:41.346Z,96328.34
2018-10-05T23:00:06.842Z,96329.06
2018-10-05T23:02:32.339Z,96330.67
2018-10-05T23:04:57.839Z,96332.45
2018-10-05T23:07:23.343Z,96329.47
2018-10-05T23:09:48.843Z,96328.89
2018-10-05T23:12:14.343Z,96326.14
2018-10-05T23:14:39.836Z,96329.06
2018-10-05T23:17:05.327Z,96330.44
2018-10-05T23:19:30.835Z,96333.73
2018-10-05T23:21:56.409Z,96333.73
2018-10-05T23:24:21.905Z,96331.86
2018-10-05T23:26:47.421Z,96327.19
2018-10-05T23:29:12.932Z,96331.72
2018-10-05T23:31:38.427Z,96327.74
2018-10-05T23:34:03.929Z,96323.22
2018-10-05T23:36:29.421Z,96320.09
2018-10-05T23:38:54.916Z,96322.42
2018-10-05T23:41:20.415Z,96316.52
2018-10-05T23:43:45.911Z,96318.72
2018-10-05T23:46:11.411Z,96305.95
2018-10-05T23:48:36.901Z,96304.98
2018-10-05T23:51:02.400Z,96304.17
2018-10-05T23:53:27.888Z,96310.21
2018-10-05T23:55:53.388Z,96312.00
2018-10-05T23:58:18.885Z,96314.33
